createdAt,value
2018-12-19T00:00:15.777Z,98253.80
2018-12-19T00:00:47.373Z,98241.45
2018-12-19T00:01:18.965Z,98246.98
2018-12-19T00:01:50.557Z,98246.14
2018-12-19T00:02:22.196Z,98254.23
2018-12-19T00:02:53.797Z,98241.02
2018-12-19T00:03:25.393Z,98212.88
2018-12-19T00:03:56.985Z,98244.43
2018-12-19T00:04:28.582Z,98246.55
2018-12-19T00:05:00.175Z,98243.95
2018-12-19T00:05:31.770Z,98249.91
2018-12-19T00:06:03.368Z,98242.67
2018-12-19T00:06:34.961Z,98245.23
2018-12-19T00:07:06.540Z,98243.53
2018-12-19T00:07:38.186Z,98244.80
2018-12-19T00:08:09.781Z,98250.77
2018-12-19T00:08:41.378Z,98250.78
2018-12-19T00:09:12.983Z,98253.38
2018-12-19T00:09:44.588Z,98254.22
2018-12-19T00:10:16.188Z,98257.11
2018-12-19T00:10:47.781Z,98250.59
2018-12-19T00:11:19.374Z,98251.73
2018-12-19T00:11:50.969Z,98254.59
2018-12-19T00:12:22.593Z,98253.53
2018-12-19T00:12:54.189Z,98258.84
2018-12-19T00:13:25.779Z,98257.31
2018-12-19T00:13:57.393Z,98256.98
2018-12-19T00:14:29.005Z,98254.38
2018-12-19T00:15:00.617Z,98250.07
2018-12-19T00:15:32.227Z,98250.01
2018-12-19T00:16:03.825Z,98248.20
2018-12-19T00:16:35.433Z,98243.47
2018-12-19T00:17:07.044Z,98244.69
2018-12-19T00:17:38.666Z,98241.23
2018-12-19T00:18:10.263Z,98237.81
2018-12-19T00:18:41.862Z,98236.07
2018-12-19T00:19:13.468Z,98234.35
2018-12-19T00:19:45.065Z,98236.01
2018-12-19T00:20:16.669Z,98235.15
2018-12-19T00:20:48.282Z,98239.03
2018-12-19T00:21:19.868Z,98229.61
2018-12-19T00:21:51.475Z,98232.97
2018-12-19T00:22:23.139Z,98237.65
2018-12-19T00:22:54.747Z,98231.27
2018-12-19T00:23:26.351Z,98232.11
2018-12-19T00:23:57.951Z,98235.56
2018-12-19T00:24:29.542Z,98238.49
2018-12-19T00:25:01.149Z,98238.07
2018-12-19T00:25:33.332Z,98240.20
2018-12-19T00:26:04.925Z,98241.86
2018-12-19T00:26:36.518Z,98235.08
2018-12-19T00:27:08.113Z,98242.34
2018-12-19T00:27:39.748Z,98241.05
2018-12-19T00:28:11.352Z,98239.34
2018-12-19T00:28:42.953Z,98239.34
2018-12-19T00:29:14.561Z,98233.81
2018-12-19T00:29:46.161Z,98204.40
2018-12-19T00:30:17.754Z,98233.37
2018-12-19T00:30:49.346Z,98233.81
2018-12-19T00:31:20.956Z,98233.39
2018-12-19T00:31:52.549Z,98234.23
2018-12-19T00:32:24.185Z,98234.67
2018-12-19T00:32:55.781Z,98230.36
2018-12-19T00:33:27.376Z,98233.34
2018-12-19T00:33:58.969Z,98236.32
2018-12-19T00:34:30.614Z,98232.54
2018-12-19T00:35:02.205Z,98230.83
2018-12-19T00:35:33.815Z,98237.22
2018-12-19T00:36:05.406Z,98234.23
2018-12-19T00:36:36.998Z,98229.12
2018-12-19T00:37:08.584Z,98232.00
2018-12-19T00:37:40.212Z,98229.45
2018-12-19T00:38:11.787Z,98237.11
2018-12-19T00:38:43.383Z,98226.94
2018-12-19T00:39:16.086Z,98227.38
2018-12-19T00:39:46.644Z,98224.87
2018-12-19T00:40:18.242Z,98192.53
2018-12-19T00:40:49.829Z,98221.09
2018-12-19T00:41:21.429Z,98226.68
2018-12-19T00:41:53.032Z,98217.78
2018-12-19T00:42:24.657Z,98214.75
2018-12-19T00:42:56.254Z,98217.33
2018-12-19T00:43:27.850Z,98215.19
2018-12-19T00:43:59.436Z,98221.53
2018-12-19T00:44:31.031Z,98218.16
2018-12-19T00:45:02.632Z,98218.58
2018-12-19T00:45:34.220Z,98220.29
2018-12-19T00:46:05.818Z,98219.44
2018-12-19T00:46:37.418Z,98220.72
2018-12-19T00:47:09.013Z,98228.34
2018-12-19T00:47:40.647Z,98220.61
2018-12-19T00:48:12.242Z,98225.19
2018-12-19T00:48:43.843Z,98218.72
2018-12-19T00:49:15.451Z,98226.70
2018-12-19T00:49:47.050Z,98222.39
2018-12-19T00:50:18.650Z,98228.73
2018-12-19T00:50:50.245Z,98222.77
2018-12-19T00:51:21.856Z,98220.62
2018-12-19T00:51:53.450Z,98222.75
2018-12-19T00:52:25.046Z,98221.05
2018-12-19T00:52:56.666Z,98203.34
2018-12-19T00:53:28.260Z,98218.88
2018-12-19T00:53:59.857Z,98216.79
2018-12-19T00:54:31.454Z,98218.92
2018-12-19T00:55:03.049Z,98216.79
2018-12-19T00:55:34.641Z,98226.17
2018-12-19T00:56:06.224Z,98222.77
2018-12-19T00:56:37.833Z,98219.82
2018-12-19T00:57:09.430Z,98219.39
2018-12-19T00:57:41.064Z,98224.52
2018-12-19T00:58:12.660Z,98222.81
2018-12-19T00:58:44.273Z,98210.03
2018-12-19T00:59:15.980Z,98218.55
2018-12-19T00:59:47.595Z,98212.17
2018-12-19T01:00:19.208Z,98217.71
2018-12-19T01:00:50.813Z,98219.03
2018-12-19T01:01:22.417Z,98216.44
2018-12-19T01:01:54.017Z,98217.28
2018-12-19T01:02:25.610Z,98222.40
2018-12-19T01:02:57.244Z,98216.01
2018-12-19T01:03:28.845Z,98215.68
2018-12-19T01:04:00.447Z,98216.91
2018-12-19T01:04:32.041Z,98196.70
2018-12-19T01:05:03.701Z,98217.75
2018-12-19T01:05:35.308Z,98215.16
2018-12-19T01:06:06.909Z,98211.79
2018-12-19T01:06:38.516Z,98216.44
2018-12-19T01:07:10.119Z,98214.73
2018-12-19T01:07:41.742Z,98213.45
2018-12-19T01:08:13.348Z,98215.59
2018-12-19T01:08:44.960Z,98209.23
2018-12-19T01:09:16.564Z,98213.92
2018-12-19T01:09:48.167Z,98209.23
2018-12-19T01:10:19.780Z,98206.64
2018-12-19T01:10:51.392Z,98212.64
2018-12-19T01:11:23.002Z,98218.61
2018-12-19T01:11:54.600Z,98215.20
2018-12-19T01:12:26.198Z,98217.33
2018-12-19T01:12:57.972Z,98212.22
2018-12-19T01:13:29.582Z,98214.31
2018-12-19T01:14:01.177Z,98214.73
2018-12-19T01:14:32.803Z,98210.47
2018-12-19T01:15:04.412Z,98217.77
2018-12-19T01:15:36.021Z,98214.72
2018-12-19T01:16:07.631Z,98221.98
2018-12-19T01:16:39.235Z,98220.73
2018-12-19T01:17:10.833Z,98218.18
2018-12-19T01:17:42.443Z,98220.75
2018-12-19T01:18:14.083Z,98214.78
2018-12-19T01:18:45.703Z,98210.09
2018-12-19T01:19:17.311Z,98212.70
2018-12-19T01:19:48.910Z,98207.59
2018-12-19T01:20:20.530Z,98204.61
2018-12-19T01:20:52.137Z,98210.14
2018-12-19T01:21:23.734Z,98202.48
2018-12-19T01:21:55.344Z,98200.36
2018-12-19T01:22:26.946Z,98204.61
2018-12-19T01:22:58.542Z,98199.93
2018-12-19T01:23:30.149Z,98194.82
2018-12-19T01:24:01.753Z,98202.91
2018-12-19T01:24:33.349Z,98198.23
2018-12-19T01:25:04.960Z,98199.97
2018-12-19T01:25:36.583Z,98197.38
2018-12-19T01:26:08.191Z,98191.42
2018-12-19T01:26:39.799Z,98198.23
2018-12-19T01:27:11.408Z,98195.25
2018-12-19T01:27:43.015Z,98189.75
2018-12-19T01:28:14.641Z,98183.75
2018-12-19T01:28:46.236Z,98182.93
2018-12-19T01:29:17.833Z,98190.19
2018-12-19T01:29:49.443Z,98194.02
2018-12-19T01:30:21.037Z,98187.63
2018-12-19T01:30:52.639Z,98188.48
2018-12-19T01:31:24.223Z,98187.63
2018-12-19T01:31:55.832Z,98193.59
2018-12-19T01:32:27.443Z,98194.02
2018-12-19T01:32:59.052Z,98189.33
2018-12-19T01:33:30.663Z,98193.58
2018-12-19T01:34:02.258Z,98194.45
2018-12-19T01:34:33.849Z,98193.18
2018-12-19T01:35:05.455Z,98188.55
2018-12-19T01:35:37.063Z,98183.05
2018-12-19T01:36:08.667Z,98183.49
2018-12-19T01:36:40.275Z,98180.94
2018-12-19T01:37:11.870Z,98185.24
2018-12-19T01:37:43.484Z,98175.46
2018-12-19T01:38:15.073Z,98179.77
2018-12-19T01:38:46.684Z,98186.17
2018-12-19T01:39:22.438Z,98175.89
2018-12-19T01:39:49.925Z,98177.17
2018-12-19T01:40:21.591Z,98179.72
2018-12-19T01:40:53.185Z,98177.52
2018-12-19T01:41:24.777Z,98180.02
2018-12-19T01:41:56.384Z,98168.08
2018-12-19T01:42:27.993Z,98171.86
2018-12-19T01:42:59.596Z,98173.13
2018-12-19T01:43:31.217Z,98171.39
2018-12-19T01:44:02.835Z,98177.77
2018-12-19T01:44:34.433Z,98171.37
2018-12-19T01:45:06.043Z,98174.37
2018-12-19T01:45:37.632Z,98179.91
2018-12-19T01:46:09.232Z,98174.79
2018-12-19T01:46:40.825Z,98174.78
2018-12-19T01:47:12.431Z,98172.66
2018-12-19T01:47:44.046Z,98174.37
2018-12-19T01:48:15.656Z,98182.08
2018-12-19T01:48:47.282Z,98185.48
2018-12-19T01:49:18.860Z,98179.53
2018-12-19T01:49:50.467Z,98174.84
2018-12-19T01:50:22.051Z,98154.16
2018-12-19T01:50:53.651Z,98175.27
2018-12-19T01:51:25.253Z,98158.23
2018-12-19T01:51:56.856Z,98159.94
2018-12-19T01:52:28.441Z,98156.11
2018-12-19T01:53:00.034Z,98158.23
2018-12-19T01:53:31.657Z,98164.19
2018-12-19T01:54:03.257Z,98158.66
2018-12-19T01:54:34.917Z,98157.37
2018-12-19T01:55:06.520Z,98149.72
2018-12-19T01:55:38.124Z,98154.83
2018-12-19T01:56:09.708Z,98157.38
2018-12-19T01:56:41.323Z,98149.33
2018-12-19T01:57:12.921Z,98156.53
2018-12-19T01:57:44.518Z,98159.06
2018-12-19T01:58:16.100Z,98148.85
2018-12-19T01:58:47.811Z,98157.33
2018-12-19T01:59:19.404Z,98153.49
2018-12-19T01:59:51.011Z,98153.07
2018-12-19T02:00:22.605Z,98154.81
2018-12-19T02:00:54.192Z,98159.51
2018-12-19T02:01:25.791Z,98156.52
2018-12-19T02:01:57.403Z,98153.53
2018-12-19T02:02:28.997Z,98156.09
2018-12-19T02:03:00.667Z,98120.80
2018-12-19T02:03:32.271Z,98152.27
2018-12-19T02:04:03.894Z,98149.29
2018-12-19T02:04:35.496Z,98152.27
2018-12-19T02:05:07.094Z,98137.41
2018-12-19T02:05:38.695Z,98148.06
2018-12-19T02:06:10.293Z,98147.63
2018-12-19T02:06:41.905Z,98148.91
2018-12-19T02:07:13.516Z,98153.16
2018-12-19T02:07:45.127Z,98153.11
2018-12-19T02:08:16.722Z,98116.42
2018-12-19T02:08:48.331Z,98145.76
2018-12-19T02:09:19.958Z,98140.64
2018-12-19T02:09:51.550Z,98152.55
2018-12-19T02:10:23.141Z,98142.72
2018-12-19T02:10:54.734Z,98144.84
2018-12-19T02:11:26.331Z,98146.54
2018-12-19T02:11:57.941Z,98156.35
2018-12-19T02:12:29.561Z,98155.07
2018-12-19T02:13:01.163Z,98152.09
2018-12-19T02:13:32.777Z,98150.38
2018-12-19T02:14:04.398Z,98154.64
2018-12-19T02:14:36.004Z,98150.38
2018-12-19T02:15:07.598Z,98148.67
2018-12-19T02:15:39.203Z,98152.94
2018-12-19T02:16:10.804Z,98142.27
2018-12-19T02:16:42.399Z,98151.17
2018-12-19T02:17:14.007Z,98147.77
2018-12-19T02:17:45.601Z,98146.91
2018-12-19T02:18:17.203Z,98144.79
2018-12-19T02:18:48.812Z,98151.23
2018-12-19T02:19:20.448Z,98141.05
2018-12-19T02:19:52.046Z,98144.89
2018-12-19T02:20:23.641Z,98153.00
2018-12-19T02:20:55.248Z,98147.95
2018-12-19T02:21:26.832Z,98146.66
2018-12-19T02:21:58.442Z,98152.22
2018-12-19T02:22:30.024Z,98150.13
2018-12-19T02:23:01.617Z,98153.12
2018-12-19T02:23:33.211Z,98157.80
2018-12-19T02:24:04.836Z,98151.41
2018-12-19T02:24:36.435Z,98153.12
2018-12-19T02:25:08.024Z,98155.68
2018-12-19T02:25:39.629Z,98156.11
2018-12-19T02:26:11.228Z,98145.45
2018-12-19T02:26:42.826Z,98146.73
2018-12-19T02:27:14.421Z,98147.63
2018-12-19T02:27:46.013Z,98145.86
2018-12-19T02:28:17.669Z,98156.52
2018-12-19T02:28:49.321Z,98145.02
2018-12-19T02:29:20.939Z,98150.13
2018-12-19T02:29:52.533Z,98156.53
2018-12-19T02:30:24.136Z,98160.38
2018-12-19T02:30:55.759Z,98164.20
2018-12-19T02:31:27.372Z,98153.17
2018-12-19T02:31:58.981Z,98154.89
2018-12-19T02:32:30.573Z,98159.62
2018-12-19T02:33:02.183Z,98152.38
2018-12-19T02:33:33.783Z,98153.23
2018-12-19T02:34:05.422Z,98154.94
2018-12-19T02:34:37.057Z,98154.09
2018-12-19T02:35:08.667Z,98151.97
2018-12-19T02:35:40.261Z,98155.42
2018-12-19T02:36:11.884Z,98143.49
2018-12-19T02:36:43.495Z,98145.63
2018-12-19T02:37:15.089Z,98150.75
2018-12-19T02:37:46.691Z,98154.16
2018-12-19T02:38:18.283Z,98139.72
2018-12-19T02:38:49.896Z,98138.02
2018-12-19T02:39:21.534Z,98138.45
2018-12-19T02:39:53.159Z,98144.42
2018-12-19T02:40:24.753Z,98143.61
2018-12-19T02:40:56.350Z,98146.18
2018-12-19T02:41:27.951Z,98153.00
2018-12-19T02:41:59.539Z,98148.31
2018-12-19T02:42:31.138Z,98148.78
2018-12-19T02:43:02.725Z,98152.62
2018-12-19T02:43:34.351Z,98156.84
2018-12-19T02:44:05.949Z,98157.73
2018-12-19T02:44:37.567Z,98153.00
2018-12-19T02:45:09.193Z,98148.78
2018-12-19T02:45:40.797Z,98155.19
2018-12-19T02:46:12.393Z,98124.39
2018-12-19T02:46:43.996Z,98158.59
2018-12-19T02:47:15.603Z,98144.53
2018-12-19T02:47:47.197Z,98154.33
2018-12-19T02:48:18.793Z,98146.67
2018-12-19T02:48:50.391Z,98142.89
2018-12-19T02:49:21.985Z,98144.18
2018-12-19T02:49:53.623Z,98135.39
2018-12-19T02:50:25.212Z,98134.37
2018-12-19T02:50:56.812Z,98136.92
2018-12-19T02:51:28.416Z,98136.50
2018-12-19T02:52:00.027Z,98138.63
2018-12-19T02:52:31.635Z,98137.77
2018-12-19T02:53:03.229Z,98139.01
2018-12-19T02:53:34.874Z,98135.59
2018-12-19T02:54:06.479Z,98141.14
2018-12-19T02:54:38.073Z,98134.74
2018-12-19T02:55:09.666Z,98128.77
2018-12-19T02:55:41.258Z,98134.31
2018-12-19T02:56:12.915Z,98132.19
2018-12-19T02:56:44.528Z,98139.90
2018-12-19T02:57:16.140Z,98138.20
2018-12-19T02:57:47.738Z,98127.55
2018-12-19T02:58:19.348Z,98130.53
2018-12-19T02:58:50.951Z,98135.23
2018-12-19T02:59:22.536Z,98129.73
2018-12-19T02:59:54.145Z,98139.11
2018-12-19T03:00:25.769Z,98131.88
2018-12-19T03:00:57.356Z,98129.32
2018-12-19T03:01:28.953Z,98138.27
2018-12-19T03:02:00.553Z,98132.73
2018-12-19T03:02:32.150Z,98136.98
2018-12-19T03:03:03.752Z,98135.72
2018-12-19T03:03:35.369Z,98136.19
2018-12-19T03:04:07.006Z,98138.31
2018-12-19T03:04:38.609Z,98131.03
2018-12-19T03:05:10.234Z,98135.70
2018-12-19T03:05:41.840Z,98128.45
2018-12-19T03:06:13.452Z,98136.08
2018-12-19T03:06:45.046Z,98122.88
2018-12-19T03:07:16.664Z,98128.78
2018-12-19T03:07:48.273Z,98129.20
2018-12-19T03:08:19.874Z,98127.91
2018-12-19T03:08:51.486Z,98127.48
2018-12-19T03:09:23.110Z,98124.08
2018-12-19T03:09:54.707Z,98121.48
2018-12-19T03:10:26.320Z,98121.84
2018-12-19T03:10:57.929Z,98121.41
2018-12-19T03:11:29.526Z,98120.94
2018-12-19T03:12:01.134Z,98114.16
2018-12-19T03:12:32.745Z,98124.82
2018-12-19T03:13:04.341Z,98112.04
2018-12-19T03:13:35.938Z,98123.12
2018-12-19T03:14:07.548Z,98115.50
2018-12-19T03:14:39.161Z,98112.95
2018-12-19T03:15:10.772Z,98110.03
2018-12-19T03:15:42.404Z,98106.62
2018-12-19T03:16:14.011Z,98113.92
2018-12-19T03:16:45.605Z,98113.92
2018-12-19T03:17:17.188Z,98114.35
2018-12-19T03:17:48.797Z,98116.48
2018-12-19T03:18:20.381Z,98109.67
2018-12-19T03:18:51.989Z,98110.95
2018-12-19T03:19:23.588Z,98112.27
2018-12-19T03:19:55.171Z,98108.02
2018-12-19T03:20:26.779Z,98116.12
2018-12-19T03:20:58.390Z,98113.61
2018-12-19T03:21:29.985Z,98113.20
2018-12-19T03:22:01.563Z,98102.59
2018-12-19T03:22:33.162Z,98112.39
2018-12-19T03:23:04.748Z,98112.45
2018-12-19T03:23:36.354Z,98108.21
2018-12-19T03:24:07.959Z,98100.16
2018-12-19T03:24:39.553Z,98110.82
2018-12-19T03:25:11.166Z,98107.42
2018-12-19T03:25:42.781Z,98115.14
2018-12-19T03:26:14.377Z,98109.23
2018-12-19T03:26:45.981Z,98104.55
2018-12-19T03:27:17.578Z,98104.97
2018-12-19T03:27:49.174Z,98097.72
2018-12-19T03:28:20.777Z,98104.06
2018-12-19T03:28:52.388Z,98104.38
2018-12-19T03:29:23.986Z,98103.09
2018-12-19T03:29:55.596Z,98098.41
2018-12-19T03:30:27.250Z,98098.40
2018-12-19T03:30:58.862Z,98097.12
2018-12-19T03:31:30.477Z,98093.25
2018-12-19T03:32:02.101Z,98094.56
2018-12-19T03:32:33.699Z,98094.52
2018-12-19T03:33:05.281Z,98093.28
2018-12-19T03:33:46.955Z,98108.63
2018-12-19T03:34:18.565Z,98086.97
2018-12-19T03:34:50.176Z,98095.02
2018-12-19T03:35:21.802Z,98086.91
2018-12-19T03:35:53.404Z,98088.20
2018-12-19T03:36:25.020Z,98089.09
2018-12-19T03:36:56.617Z,98094.58
2018-12-19T03:37:28.213Z,98098.83
2018-12-19T03:37:59.796Z,98093.30
2018-12-19T03:38:31.389Z,98092.88
2018-12-19T03:39:02.996Z,98094.15
2018-12-19T03:39:34.591Z,98095.86
2018-12-19T03:40:06.206Z,98097.50
2018-12-19T03:40:37.833Z,98093.53
2018-12-19T03:41:09.426Z,98092.86
2018-12-19T03:41:41.018Z,98098.66
2018-12-19T03:42:12.611Z,98103.59
2018-12-19T03:42:44.211Z,98093.08
2018-12-19T03:43:15.805Z,98094.31
2018-12-19T03:43:47.388Z,98094.00
2018-12-19T03:44:18.973Z,98079.05
2018-12-19T03:44:50.571Z,98099.08
2018-12-19T03:45:22.208Z,98086.11
2018-12-19T03:45:53.844Z,98088.31
2018-12-19T03:46:25.456Z,98098.45
2018-12-19T03:46:57.049Z,98098.97
2018-12-19T03:47:28.641Z,98099.84
2018-12-19T03:48:00.234Z,98100.36
2018-12-19T03:48:37.412Z,98091.15
2018-12-19T03:49:09.013Z,98094.95
2018-12-19T03:49:40.605Z,98089.48
2018-12-19T03:50:12.197Z,98100.05
2018-12-19T03:50:43.804Z,98105.14
2018-12-19T03:51:15.397Z,98092.91
2018-12-19T03:51:46.991Z,98095.45
2018-12-19T03:52:18.580Z,98098.39
2018-12-19T03:52:50.182Z,98085.66
2018-12-19T03:53:21.774Z,98083.24
2018-12-19T03:53:53.365Z,98089.67
2018-12-19T03:54:24.956Z,98085.50
2018-12-19T03:54:56.564Z,98088.95
2018-12-19T03:55:28.180Z,98075.62
2018-12-19T03:55:59.793Z,98094.66
2018-12-19T03:56:31.386Z,98090.95
2018-12-19T03:57:02.986Z,98100.05
2018-12-19T03:57:34.599Z,98096.28
2018-12-19T03:58:06.194Z,98096.27
2018-12-19T03:58:37.802Z,98095.40
2018-12-19T03:59:09.402Z,98090.42
2018-12-19T03:59:41.367Z,98093.62
2018-12-19T04:00:12.645Z,97991.63
2018-12-19T04:00:44.267Z,98096.71
2018-12-19T04:01:15.876Z,98096.59
2018-12-19T04:01:47.478Z,98099.00
2018-12-19T04:02:19.083Z,98090.38
2018-12-19T04:02:50.679Z,98091.09
2018-12-19T04:03:22.269Z,98091.36
2018-12-19T04:03:53.881Z,98087.89
2018-12-19T04:04:25.478Z,98089.52
2018-12-19T04:04:57.083Z,98067.26
2018-12-19T04:05:28.717Z,98091.23
2018-12-19T04:06:00.322Z,98087.81
2018-12-19T04:06:31.919Z,98087.71
2018-12-19T04:07:03.529Z,98082.47
2018-12-19T04:07:35.120Z,98184.55
2018-12-19T04:08:06.732Z,98078.40
2018-12-19T04:08:38.317Z,98088.07
2018-12-19T04:09:09.926Z,98087.09
2018-12-19T04:09:41.528Z,98081.05
2018-12-19T04:10:13.127Z,98077.11
2018-12-19T04:10:44.756Z,98080.45
2018-12-19T04:11:16.345Z,98075.28
2018-12-19T04:11:47.945Z,98085.02
2018-12-19T04:12:19.556Z,98079.84
2018-12-19T04:12:51.168Z,98084.41
2018-12-19T04:13:22.835Z,98076.25
2018-12-19T04:13:54.434Z,98076.17
2018-12-19T04:14:26.037Z,98076.95
2018-12-19T04:14:57.644Z,98077.31
2018-12-19T04:15:29.244Z,98075.61
2018-12-19T04:16:00.868Z,98071.34
2018-12-19T04:16:32.480Z,98068.72
2018-12-19T04:17:04.093Z,98065.73
2018-12-19T04:17:35.704Z,98079.73
2018-12-19T04:18:07.287Z,98067.80
2018-12-19T04:18:38.893Z,98070.29
2018-12-19T04:19:10.493Z,98062.56
2018-12-19T04:19:42.104Z,98068.07
2018-12-19T04:20:13.717Z,98068.48
2018-12-19T04:20:45.341Z,98065.52
2018-12-19T04:21:16.950Z,98062.89
2018-12-19T04:21:48.554Z,98046.50
2018-12-19T04:22:20.165Z,98062.88
2018-12-19T04:22:51.785Z,98062.87
2018-12-19T04:23:23.403Z,98057.28
2018-12-19T04:23:54.992Z,98056.89
2018-12-19T04:24:26.609Z,98054.34
2018-12-19T04:24:58.228Z,98060.73
2018-12-19T04:25:29.839Z,98058.17
2018-12-19T04:26:01.472Z,98047.52
2018-12-19T04:26:33.088Z,98051.31
2018-12-19T04:27:06.666Z,98055.63
2018-12-19T04:27:38.280Z,98095.33
2018-12-19T04:28:09.870Z,98054.47
2018-12-19T04:28:41.478Z,98054.02
2018-12-19T04:29:13.080Z,98053.19
2018-12-19T04:29:44.674Z,98060.05
2018-12-19T04:30:16.270Z,98054.53
2018-12-19T04:30:47.896Z,98054.59
2018-12-19T04:31:19.495Z,98056.31
2018-12-19T04:31:51.086Z,98057.64
2018-12-19T04:32:22.690Z,98063.19
2018-12-19T04:32:54.301Z,98061.91
2018-12-19T04:33:25.899Z,98060.25
2018-12-19T04:33:57.511Z,98057.70
2018-12-19T04:34:29.117Z,98062.03
2018-12-19T04:35:00.726Z,98064.59
2018-12-19T04:35:32.327Z,98071.04
2018-12-19T04:36:04.023Z,98067.70
2018-12-19T04:36:35.629Z,98066.02
2018-12-19T04:37:07.222Z,98070.77
2018-12-19T04:37:38.818Z,98066.94
2018-12-19T04:38:10.413Z,98066.13
2018-12-19T04:38:42.011Z,98071.25
2018-12-19T04:39:13.602Z,98073.82
2018-12-19T04:39:45.199Z,98068.75
2018-12-19T04:40:16.790Z,98071.75
2018-12-19T04:40:48.565Z,98073.88
2018-12-19T04:41:20.160Z,98068.41
2018-12-19T04:41:51.768Z,98068.83
2018-12-19T04:42:23.375Z,98069.73
2018-12-19T04:42:54.980Z,98069.75
2018-12-19T04:43:26.563Z,98077.04
2018-12-19T04:43:58.157Z,98069.39
2018-12-19T04:44:29.750Z,98067.75
2018-12-19T04:45:01.360Z,98062.21
2018-12-19T04:45:32.947Z,98075.89
2018-12-19T04:46:04.585Z,98073.82
2018-12-19T04:46:36.196Z,98075.48
2018-12-19T04:47:07.790Z,98071.27
2018-12-19T04:47:39.398Z,98066.60
2018-12-19T04:48:11.008Z,98061.59
2018-12-19T04:48:42.601Z,98066.28
2018-12-19T04:49:14.197Z,98067.57
2018-12-19T04:49:45.802Z,98070.17
2018-12-19T04:50:17.405Z,98070.60
2018-12-19T04:50:49.019Z,98070.24
2018-12-19T04:51:20.655Z,98061.72
2018-12-19T04:51:52.257Z,98069.81
2018-12-19T04:52:23.868Z,98076.64
2018-12-19T04:52:55.475Z,98066.06
2018-12-19T04:53:27.064Z,98070.73
2018-12-19T04:53:58.705Z,98063.08
2018-12-19T04:54:30.303Z,98063.56
2018-12-19T04:55:01.921Z,98060.56
2018-12-19T04:55:33.508Z,98062.70
2018-12-19T04:56:05.130Z,98061.90
2018-12-19T04:56:36.743Z,98057.64
2018-12-19T04:57:08.351Z,98064.05
2018-12-19T04:57:39.945Z,98057.73
2018-12-19T04:58:11.527Z,98060.28
2018-12-19T04:58:43.122Z,98056.45
2018-12-19T04:59:14.731Z,98061.59
2018-12-19T04:59:46.331Z,98067.25
2018-12-19T05:00:17.922Z,98059.05
2018-12-19T05:00:49.531Z,98063.31
2018-12-19T05:01:21.154Z,98067.20
2018-12-19T05:01:52.760Z,98059.11
2018-12-19T05:02:24.365Z,98056.57
2018-12-19T05:02:55.947Z,98057.45
2018-12-19T05:03:27.530Z,98055.34
2018-12-19T05:03:59.125Z,98057.05
2018-12-19T05:04:30.720Z,98054.92
2018-12-19T05:05:02.325Z,98051.95
2018-12-19T05:05:33.921Z,98055.40
2018-12-19T05:06:05.547Z,98057.53
2018-12-19T05:06:37.127Z,98055.41
2018-12-19T05:07:08.717Z,98050.33
2018-12-19T05:07:40.291Z,98043.55
2018-12-19T05:08:11.873Z,98044.38
2018-12-19T05:08:43.522Z,98043.56
2018-12-19T05:09:15.109Z,98049.95
2018-12-19T05:09:46.701Z,98045.27
2018-12-19T05:10:18.291Z,98040.17
2018-12-19T05:10:49.899Z,98038.94
2018-12-19T05:11:21.610Z,98037.67
2018-12-19T05:11:53.230Z,98041.09
2018-12-19T05:12:24.828Z,98041.94
2018-12-19T05:12:56.422Z,98041.13
2018-12-19T05:13:28.018Z,98039.01
2018-12-19T05:13:59.614Z,98037.78
2018-12-19T05:14:31.218Z,98041.62
2018-12-19T05:15:02.813Z,98034.86
2018-12-19T05:15:34.420Z,98033.10
2018-12-19T05:16:06.073Z,98035.67
2018-12-19T05:16:37.670Z,98032.70
2018-12-19T05:17:09.280Z,98027.20
2018-12-19T05:17:40.873Z,98027.20
2018-12-19T05:18:12.464Z,98027.21
2018-12-19T05:18:44.071Z,98013.23
2018-12-19T05:19:15.727Z,98019.17
2018-12-19T05:19:47.323Z,98014.48
2018-12-19T05:20:18.932Z,98024.28
2018-12-19T05:20:50.544Z,98025.56
2018-12-19T05:21:22.212Z,98016.63
2018-12-19T05:21:53.820Z,98013.23
2018-12-19T05:22:25.414Z,98009.44
2018-12-19T05:22:57.019Z,98010.30
2018-12-19T05:23:28.628Z,98019.23
2018-12-19T05:24:00.221Z,98006.47
2018-12-19T05:24:31.829Z,98005.67
2018-12-19T05:25:03.430Z,98015.84
2018-12-19T05:25:35.045Z,98013.30
2018-12-19T05:26:06.665Z,98011.20
2018-12-19T05:26:38.296Z,98002.66
2018-12-19T05:27:09.879Z,98012.86
2018-12-19T05:27:41.492Z,98009.45
2018-12-19T05:28:13.082Z,98012.87
2018-12-19T05:28:44.682Z,98007.81
2018-12-19T05:29:16.298Z,98015.89
2018-12-19T05:29:47.895Z,98013.77
2018-12-19T05:30:19.486Z,98015.90
2018-12-19T05:30:51.075Z,98005.70
2018-12-19T05:31:22.673Z,98013.78
2018-12-19T05:31:54.269Z,98006.58
2018-12-19T05:32:25.893Z,98016.75
2018-12-19T05:32:57.483Z,98013.78
2018-12-19T05:33:29.074Z,98010.80
2018-12-19T05:34:00.665Z,98015.52
2018-12-19T05:34:32.268Z,98017.66
2018-12-19T05:35:03.853Z,98016.81
2018-12-19T05:35:35.449Z,98017.23
2018-12-19T05:36:07.042Z,98009.16
2018-12-19T05:36:38.650Z,98018.93
2018-12-19T05:37:10.282Z,98019.78
2018-12-19T05:37:41.888Z,98017.23
2018-12-19T05:38:13.478Z,98009.58
2018-12-19T05:38:45.073Z,98007.48
2018-12-19T05:39:16.665Z,98010.48
2018-12-19T05:39:48.267Z,98010.05
2018-12-19T05:40:19.865Z,98015.58
2018-12-19T05:40:51.465Z,98001.97
2018-12-19T05:41:23.072Z,97993.21
2018-12-19T05:41:54.680Z,98010.06
2018-12-19T05:42:26.267Z,98007.94
2018-12-19T05:42:57.853Z,98006.66
2018-12-19T05:43:29.459Z,98012.62
2018-12-19T05:44:01.079Z,98012.19
2018-12-19T05:44:32.680Z,98012.20
2018-12-19T05:45:04.265Z,98012.19
2018-12-19T05:45:35.863Z,98013.89
2018-12-19T05:46:07.479Z,98007.09
2018-12-19T05:46:39.073Z,98007.50
2018-12-19T05:47:10.690Z,98011.77
2018-12-19T05:47:42.486Z,98009.21
2018-12-19T05:48:14.400Z,98005.80
2018-12-19T05:48:46.102Z,98007.50
2018-12-19T05:49:17.694Z,98009.20
2018-12-19T05:49:49.295Z,98008.34
2018-12-19T05:50:20.904Z,98003.72
2018-12-19T05:50:52.501Z,98005.38
2018-12-19T05:51:24.092Z,97994.73
2018-12-19T05:51:55.735Z,98007.08
2018-12-19T05:52:27.333Z,98002.39
2018-12-19T05:52:58.929Z,98010.47
2018-12-19T05:53:30.543Z,97999.84
2018-12-19T05:54:02.141Z,98002.39
2018-12-19T05:54:33.733Z,98006.22
2018-12-19T05:55:05.321Z,98008.34
2018-12-19T05:55:36.932Z,97995.58
2018-12-19T05:56:08.544Z,98000.69
2018-12-19T05:56:40.152Z,98009.16
2018-12-19T05:57:11.797Z,98003.67
2018-12-19T05:57:43.408Z,98002.82
2018-12-19T05:58:15.005Z,97997.72
2018-12-19T05:58:46.601Z,98004.11
2018-12-19T05:59:18.216Z,97997.30
2018-12-19T05:59:49.810Z,97999.47
2018-12-19T06:00:21.420Z,98002.88
2018-12-19T06:00:53.027Z,98002.41
2018-12-19T06:01:24.633Z,98001.55
2018-12-19T06:01:56.240Z,98000.75
2018-12-19T06:02:27.867Z,98010.53
2018-12-19T06:02:59.469Z,97999.00
2018-12-19T06:03:31.121Z,98004.11
2018-12-19T06:04:02.719Z,97999.42
2018-12-19T06:04:34.313Z,97997.72
2018-12-19T06:05:05.899Z,97972.23
2018-12-19T06:05:37.509Z,98009.20
2018-12-19T06:06:09.117Z,98006.64
2018-12-19T06:06:40.703Z,98006.22
2018-12-19T06:07:12.288Z,98011.75
2018-12-19T06:07:43.881Z,98002.81
2018-12-19T06:08:15.476Z,98004.53
2018-12-19T06:08:47.091Z,98005.38
2018-12-19T06:09:18.687Z,98009.20
2018-12-19T06:09:50.278Z,98004.95
2018-12-19T06:10:26.166Z,98010.91
2018-12-19T06:10:53.521Z,98006.22
2018-12-19T06:11:25.113Z,98002.81